sensor_id;sensor_type;location;lat;lon;timestamp;P1;durP1;ratioP1;P2;durP2;ratioP2
68284;SDS011;55114;52.052;5.238;2022-10-16T00:01:07;4.60;;;1.95;;
68284;SDS011;55114;52.052;5.238;2022-10-16T00:03:34;5.83;;;2.30;;
68284;SDS011;55114;52.052;5.238;2022-10-16T00:06:03;5.28;;;2.15;;
68284;SDS011;55114;52.052;5.238;2022-10-16T00:08:31;5.70;;;2.28;;
68284;SDS011;55114;52.052;5.238;2022-10-16T00:11:05;6.82;;;2.20;;
68284;SDS011;55114;52.052;5.238;2022-10-16T00:13:33;5.95;;;2.30;;
68284;SDS011;55114;52.052;5.238;2022-10-16T00:16:01;4.63;;;2.03;;
68284;SDS011;55114;52.052;5.238;2022-10-16T00:18:28;7.10;;;2.17;;
68284;SDS011;55114;52.052;5.238;2022-10-16T00:21:00;6.75;;;2.10;;
68284;SDS011;55114;52.052;5.238;2022-10-16T00:23:31;5.47;;;2.33;;
68284;SDS011;55114;52.052;5.238;2022-10-16T00:26:02;4.63;;;2.30;;
68284;SDS011;55114;52.052;5.238;2022-10-16T00:28:29;5.20;;;2.27;;
68284;SDS011;55114;52.052;5.238;2022-10-16T00:30:57;5.15;;;2.40;;
68284;SDS011;55114;52.052;5.238;2022-10-16T00:33:24;5.50;;;2.30;;
68284;SDS011;55114;52.052;5.238;2022-10-16T00:35:51;5.28;;;2.38;;
68284;SDS011;55114;52.052;5.238;2022-10-16T00:38:19;6.22;;;2.30;;
68284;SDS011;55114;52.052;5.238;2022-10-16T00:40:46;6.60;;;2.33;;
68284;SDS011;55114;52.052;5.238;2022-10-16T00:43:32;5.90;;;2.45;;
68284;SDS011;55114;52.052;5.238;2022-10-16T00:46:19;5.57;;;2.50;;
68284;SDS011;55114;52.052;5.238;2022-10-16T00:49:00;6.20;;;2.35;;
68284;SDS011;55114;52.052;5.238;2022-10-16T00:51:30;5.25;;;2.78;;
68284;SDS011;55114;52.052;5.238;2022-10-16T00:53:59;7.17;;;2.70;;
68284;SDS011;55114;52.052;5.238;2022-10-16T00:56:35;7.57;;;3.17;;
68284;SDS011;55114;52.052;5.238;2022-10-16T00:59:03;7.32;;;2.92;;
68284;SDS011;55114;52.052;5.238;2022-10-16T01:01:34;7.30;;;2.60;;
68284;SDS011;55114;52.052;5.238;2022-10-16T01:04:08;6.35;;;2.70;;
68284;SDS011;55114;52.052;5.238;2022-10-16T01:09:23;5.80;;;2.78;;
68284;SDS011;55114;52.052;5.238;2022-10-16T01:11:55;6.68;;;3.00;;
68284;SDS011;55114;52.052;5.238;2022-10-16T01:14:37;5.38;;;2.72;;
68284;SDS011;55114;52.052;5.238;2022-10-16T01:22:33;6.13;;;2.60;;
68284;SDS011;55114;52.052;5.238;2022-10-16T01:25:02;5.82;;;2.70;;
68284;SDS011;55114;52.052;5.238;2022-10-16T01:27:32;5.45;;;2.60;;
68284;SDS011;55114;52.052;5.238;2022-10-16T01:30:23;6.45;;;2.80;;
68284;SDS011;55114;52.052;5.238;2022-10-16T01:32:55;4.50;;;2.33;;
68284;SDS011;55114;52.052;5.238;2022-10-16T01:35:27;6.32;;;2.70;;
68284;SDS011;55114;52.052;5.238;2022-10-16T01:38:12;7.55;;;2.85;;
68284;SDS011;55114;52.052;5.238;2022-10-16T01:40:52;6.25;;;2.30;;
68284;SDS011;55114;52.052;5.238;2022-10-16T01:43:33;6.70;;;3.00;;
68284;SDS011;55114;52.052;5.238;2022-10-16T01:46:08;5.60;;;2.50;;
68284;SDS011;55114;52.052;5.238;2022-10-16T01:48:36;5.78;;;2.55;;
68284;SDS011;55114;52.052;5.238;2022-10-16T01:51:05;6.45;;;2.67;;
68284;SDS011;55114;52.052;5.238;2022-10-16T01:53:33;6.53;;;2.72;;
68284;SDS011;55114;52.052;5.238;2022-10-16T01:56:01;6.55;;;3.40;;
68284;SDS011;55114;52.052;5.238;2022-10-16T01:58:40;7.53;;;3.30;;
68284;SDS011;55114;52.052;5.238;2022-10-16T02:01:17;6.85;;;3.20;;
68284;SDS011;55114;52.052;5.238;2022-10-16T02:03:46;6.40;;;3.03;;
68284;SDS011;55114;52.052;5.238;2022-10-16T02:06:13;12.27;;;3.40;;
68284;SDS011;55114;52.052;5.238;2022-10-16T02:08:41;6.60;;;3.08;;
68284;SDS011;55114;52.052;5.238;2022-10-16T02:11:10;7.33;;;3.40;;
68284;SDS011;55114;52.052;5.238;2022-10-16T02:13:46;5.30;;;3.20;;
68284;SDS011;55114;52.052;5.238;2022-10-16T02:16:15;8.75;;;3.10;;
68284;SDS011;55114;52.052;5.238;2022-10-16T02:18:42;7.55;;;3.10;;
68284;SDS011;55114;52.052;5.238;2022-10-16T02:21:18;7.07;;;3.33;;
68284;SDS011;55114;52.052;5.238;2022-10-16T02:24:32;6.70;;;2.90;;
68284;SDS011;55114;52.052;5.238;2022-10-16T02:26:51;5.97;;;3.05;;
68284;SDS011;55114;52.052;5.238;2022-10-16T02:29:23;6.45;;;2.90;;
68284;SDS011;55114;52.052;5.238;2022-10-16T02:31:52;6.63;;;2.80;;
68284;SDS011;55114;52.052;5.238;2022-10-16T02:34:30;5.00;;;2.72;;
68284;SDS011;55114;52.052;5.238;2022-10-16T02:36:58;6.03;;;2.90;;
68284;SDS011;55114;52.052;5.238;2022-10-16T02:39:29;14.63;;;3.35;;
68284;SDS011;55114;52.052;5.238;2022-10-16T02:42:01;6.57;;;3.20;;
68284;SDS011;55114;52.052;5.238;2022-10-16T02:44:29;6.72;;;2.75;;
68284;SDS011;55114;52.052;5.238;2022-10-16T02:46:59;5.60;;;3.15;;
68284;SDS011;55114;52.052;5.238;2022-10-16T02:49:27;4.93;;;2.50;;
68284;SDS011;55114;52.052;5.238;2022-10-16T02:51:57;6.03;;;2.60;;
68284;SDS011;55114;52.052;5.238;2022-10-16T02:54:30;7.03;;;2.90;;
68284;SDS011;55114;52.052;5.238;2022-10-16T02:57:01;5.15;;;2.78;;
68284;SDS011;55114;52.052;5.238;2022-10-16T02:59:28;5.03;;;2.80;;
68284;SDS011;55114;52.052;5.238;2022-10-16T03:01:55;6.30;;;2.70;;
68284;SDS011;55114;52.052;5.238;2022-10-16T03:04:22;6.45;;;2.88;;
68284;SDS011;55114;52.052;5.238;2022-10-16T03:06:49;5.43;;;2.53;;
68284;SDS011;55114;52.052;5.238;2022-10-16T03:09:19;4.95;;;2.50;;
68284;SDS011;55114;52.052;5.238;2022-10-16T03:11:46;4.95;;;2.70;;
68284;SDS011;55114;52.052;5.238;2022-10-16T03:14:13;6.47;;;2.30;;
68284;SDS011;55114;52.052;5.238;2022-10-16T03:16:40;5.72;;;2.30;;
68284;SDS011;55114;52.052;5.238;2022-10-16T03:19:08;6.53;;;2.50;;
68284;SDS011;55114;52.052;5.238;2022-10-16T03:21:35;4.30;;;2.20;;
68284;SDS011;55114;52.052;5.238;2022-10-16T03:24:02;5.15;;;2.15;;
68284;SDS011;55114;52.052;5.238;2022-10-16T03:26:29;12.73;;;3.07;;
68284;SDS011;55114;52.052;5.238;2022-10-16T03:29:00;7.55;;;2.55;;
68284;SDS011;55114;52.052;5.238;2022-10-16T03:31:38;6.85;;;2.35;;
68284;SDS011;55114;52.052;5.238;2022-10-16T03:34:05;6.18;;;2.20;;
68284;SDS011;55114;52.052;5.238;2022-10-16T03:36:32;6.90;;;2.25;;
68284;SDS011;55114;52.052;5.238;2022-10-16T03:39:01;5.90;;;2.30;;
68284;SDS011;55114;52.052;5.238;2022-10-16T03:41:28;5.95;;;2.30;;
68284;SDS011;55114;52.052;5.238;2022-10-16T03:43:57;5.43;;;2.30;;
68284;SDS011;55114;52.052;5.238;2022-10-16T03:46:24;7.85;;;2.50;;
68284;SDS011;55114;52.052;5.238;2022-10-16T03:48:51;6.72;;;2.60;;
68284;SDS011;55114;52.052;5.238;2022-10-16T03:51:19;4.87;;;2.27;;
68284;SDS011;55114;52.052;5.238;2022-10-16T03:53:46;4.25;;;2.00;;
68284;SDS011;55114;52.052;5.238;2022-10-16T03:56:13;5.47;;;2.28;;
68284;SDS011;55114;52.052;5.238;2022-10-16T03:58:42;5.05;;;2.13;;
68284;SDS011;55114;52.052;5.238;2022-10-16T04:01:09;4.18;;;2.15;;
68284;SDS011;55114;52.052;5.238;2022-10-16T04:03:36;4.70;;;2.30;;
68284;SDS011;55114;52.052;5.238;2022-10-16T04:06:03;5.05;;;2.00;;
68284;SDS011;55114;52.052;5.238;2022-10-16T04:08:30;4.43;;;2.00;;
68284;SDS011;55114;52.052;5.238;2022-10-16T04:11:01;6.57;;;2.10;;
68284;SDS011;55114;52.052;5.238;2022-10-16T04:13:28;5.40;;;2.15;;
68284;SDS011;55114;52.052;5.238;2022-10-16T04:15:55;4.30;;;2.07;;
68284;SDS011;55114;52.052;5.238;2022-10-16T04:18:22;5.57;;;2.30;;
68284;SDS011;55114;52.052;5.238;2022-10-16T04:20:49;5.00;;;2.00;;
68284;SDS011;55114;52.052;5.238;2022-10-16T04:23:16;4.45;;;1.80;;
68284;SDS011;55114;52.052;5.238;2022-10-16T04:25:44;6.57;;;2.08;;
68284;SDS011;55114;52.052;5.238;2022-10-16T04:28:11;4.00;;;1.80;;
68284;SDS011;55114;52.052;5.238;2022-10-16T04:30:38;4.03;;;1.90;;
68284;SDS011;55114;52.052;5.238;2022-10-16T04:33:05;4.35;;;2.13;;
68284;SDS011;55114;52.052;5.238;2022-10-16T04:35:32;6.20;;;1.77;;
68284;SDS011;55114;52.052;5.238;2022-10-16T04:38:00;7.68;;;2.15;;
68284;SDS011;55114;52.052;5.238;2022-10-16T04:40:28;5.10;;;1.80;;
68284;SDS011;55114;52.052;5.238;2022-10-16T04:42:59;3.70;;;1.80;;
68284;SDS011;55114;52.052;5.238;2022-10-16T04:45:31;5.28;;;2.03;;
68284;SDS011;55114;52.052;5.238;2022-10-16T04:48:00;4.63;;;2.00;;
68284;SDS011;55114;52.052;5.238;2022-10-16T04:50:30;5.13;;;2.00;;
68284;SDS011;55114;52.052;5.238;2022-10-16T04:52:57;6.47;;;1.80;;
68284;SDS011;55114;52.052;5.238;2022-10-16T04:55:25;4.85;;;1.95;;
68284;SDS011;55114;52.052;5.238;2022-10-16T04:57:52;5.75;;;2.17;;
68284;SDS011;55114;52.052;5.238;2022-10-16T05:00:22;3.88;;;1.85;;
68284;SDS011;55114;52.052;5.238;2022-10-16T05:02:50;4.13;;;1.85;;
68284;SDS011;55114;52.052;5.238;2022-10-16T05:05:17;6.40;;;2.10;;
68284;SDS011;55114;52.052;5.238;2022-10-16T05:07:46;5.05;;;2.15;;
68284;SDS011;55114;52.052;5.238;2022-10-16T05:10:13;4.88;;;1.90;;
68284;SDS011;55114;52.052;5.238;2022-10-16T05:12:40;4.65;;;2.05;;
68284;SDS011;55114;52.052;5.238;2022-10-16T05:15:07;5.32;;;2.00;;
68284;SDS011;55114;52.052;5.238;2022-10-16T05:17:35;6.20;;;2.07;;
68284;SDS011;55114;52.052;5.238;2022-10-16T05:20:09;7.18;;;2.20;;
68284;SDS011;55114;52.052;5.238;2022-10-16T05:22:39;4.90;;;2.30;;
68284;SDS011;55114;52.052;5.238;2022-10-16T05:25:06;4.32;;;1.95;;
68284;SDS011;55114;52.052;5.238;2022-10-16T05:27:34;4.75;;;1.90;;
68284;SDS011;55114;52.052;5.238;2022-10-16T05:30:01;7.43;;;2.10;;
68284;SDS011;55114;52.052;5.238;2022-10-16T05:32:31;4.63;;;2.00;;
68284;SDS011;55114;52.052;5.238;2022-10-16T05:34:58;5.28;;;2.15;;
68284;SDS011;55114;52.052;5.238;2022-10-16T05:37:27;5.25;;;2.20;;
68284;SDS011;55114;52.052;5.238;2022-10-16T05:39:54;6.10;;;1.90;;
68284;SDS011;55114;52.052;5.238;2022-10-16T05:42:21;7.00;;;2.30;;
68284;SDS011;55114;52.052;5.238;2022-10-16T05:44:48;4.95;;;2.00;;
68284;SDS011;55114;52.052;5.238;2022-10-16T05:47:16;4.50;;;2.40;;
68284;SDS011;55114;52.052;5.238;2022-10-16T05:49:43;6.57;;;2.10;;
68284;SDS011;55114;52.052;5.238;2022-10-16T05:52:10;8.50;;;2.08;;
68284;SDS011;55114;52.052;5.238;2022-10-16T05:54:37;4.37;;;2.17;;
68284;SDS011;55114;52.052;5.238;2022-10-16T05:57:04;5.20;;;2.50;;
68284;SDS011;55114;52.052;5.238;2022-10-16T05:59:35;5.80;;;2.40;;
68284;SDS011;55114;52.052;5.238;2022-10-16T06:02:02;8.27;;;2.30;;
68284;SDS011;55114;52.052;5.238;2022-10-16T06:04:29;4.90;;;2.10;;
68284;SDS011;55114;52.052;5.238;2022-10-16T06:07:00;4.93;;;2.13;;
68284;SDS011;55114;52.052;5.238;2022-10-16T06:09:35;5.18;;;2.10;;
68284;SDS011;55114;52.052;5.238;2022-10-16T06:12:03;7.55;;;2.72;;
68284;SDS011;55114;52.052;5.238;2022-10-16T06:14:30;5.32;;;2.42;;
68284;SDS011;55114;52.052;5.238;2022-10-16T06:16:57;5.07;;;2.17;;
68284;SDS011;55114;52.052;5.238;2022-10-16T06:19:25;5.35;;;2.30;;
68284;SDS011;55114;52.052;5.238;2022-10-16T06:21:52;6.97;;;2.80;;
68284;SDS011;55114;52.052;5.238;2022-10-16T06:24:19;6.85;;;2.50;;
68284;SDS011;55114;52.052;5.238;2022-10-16T06:26:47;6.50;;;2.38;;
68284;SDS011;55114;52.052;5.238;2022-10-16T06:29:14;7.93;;;2.67;;
68284;SDS011;55114;52.052;5.238;2022-10-16T06:31:42;6.80;;;2.45;;
68284;SDS011;55114;52.052;5.238;2022-10-16T07:06:44;6.13;;;2.40;;
68284;SDS011;55114;52.052;5.238;2022-10-16T07:19:53;8.15;;;2.00;;
68284;SDS011;55114;52.052;5.238;2022-10-16T07:22:22;4.28;;;1.85;;
68284;SDS011;55114;52.052;5.238;2022-10-16T07:24:55;7.32;;;1.90;;
68284;SDS011;55114;52.052;5.238;2022-10-16T08:43:35;6.95;;;2.33;;
68284;SDS011;55114;52.052;5.238;2022-10-16T08:48:43;7.75;;;2.30;;
68284;SDS011;55114;52.052;5.238;2022-10-16T08:51:20;6.40;;;2.40;;
68284;SDS011;55114;52.052;5.238;2022-10-16T08:56:38;4.90;;;1.92;;
68284;SDS011;55114;52.052;5.238;2022-10-16T08:59:09;5.50;;;2.00;;
68284;SDS011;55114;52.052;5.238;2022-10-16T09:01:41;8.40;;;2.10;;
68284;SDS011;55114;52.052;5.238;2022-10-16T09:06:47;7.68;;;2.13;;
68284;SDS011;55114;52.052;5.238;2022-10-16T09:14:47;10.98;;;2.25;;
68284;SDS011;55114;52.052;5.238;2022-10-16T09:17:22;8.70;;;2.07;;
68284;SDS011;55114;52.052;5.238;2022-10-16T09:19:55;6.47;;;2.20;;
68284;SDS011;55114;52.052;5.238;2022-10-16T09:22:25;7.05;;;1.90;;
68284;SDS011;55114;52.052;5.238;2022-10-16T09:24:58;6.72;;;2.03;;
68284;SDS011;55114;52.052;5.238;2022-10-16T09:27:31;6.30;;;1.83;;
68284;SDS011;55114;52.052;5.238;2022-10-16T09:29:59;6.10;;;1.70;;
68284;SDS011;55114;52.052;5.238;2022-10-16T09:32:26;8.25;;;1.58;;
68284;SDS011;55114;52.052;5.238;2022-10-16T09:34:55;6.45;;;2.10;;
68284;SDS011;55114;52.052;5.238;2022-10-16T09:37:23;6.50;;;2.13;;
68284;SDS011;55114;52.052;5.238;2022-10-16T09:39:55;7.53;;;2.08;;
68284;SDS011;55114;52.052;5.238;2022-10-16T09:42:41;5.23;;;1.87;;
68284;SDS011;55114;52.052;5.238;2022-10-16T09:45:19;7.70;;;1.67;;
68284;SDS011;55114;52.052;5.238;2022-10-16T09:47:47;5.40;;;1.60;;
68284;SDS011;55114;52.052;5.238;2022-10-16T09:50:27;7.50;;;1.75;;
68284;SDS011;55114;52.052;5.238;2022-10-16T09:55:53;6.27;;;1.67;;
68284;SDS011;55114;52.052;5.238;2022-10-16T09:58:27;10.55;;;1.75;;
68284;SDS011;55114;52.052;5.238;2022-10-16T10:00:54;8.32;;;1.90;;
68284;SDS011;55114;52.052;5.238;2022-10-16T10:06:06;10.27;;;1.70;;
68284;SDS011;55114;52.052;5.238;2022-10-16T10:08:34;7.70;;;1.90;;
68284;SDS011;55114;52.052;5.238;2022-10-16T10:11:02;7.97;;;1.95;;
68284;SDS011;55114;52.052;5.238;2022-10-16T10:13:32;8.40;;;1.92;;
68284;SDS011;55114;52.052;5.238;2022-10-16T10:16:00;10.05;;;2.10;;
68284;SDS011;55114;52.052;5.238;2022-10-16T10:18:28;5.25;;;1.60;;
68284;SDS011;55114;52.052;5.238;2022-10-16T10:20:58;9.27;;;1.80;;
68284;SDS011;55114;52.052;5.238;2022-10-16T10:23:27;7.35;;;1.77;;
68284;SDS011;55114;52.052;5.238;2022-10-16T10:25:58;11.00;;;2.10;;
68284;SDS011;55114;52.052;5.238;2022-10-16T10:31:09;9.95;;;1.80;;
68284;SDS011;55114;52.052;5.238;2022-10-16T10:33:41;10.17;;;2.00;;
68284;SDS011;55114;52.052;5.238;2022-10-16T10:38:53;9.43;;;2.10;;
68284;SDS011;55114;52.052;5.238;2022-10-16T10:41:27;9.25;;;1.83;;
68284;SDS011;55114;52.052;5.238;2022-10-16T10:46:50;7.97;;;1.97;;
68284;SDS011;55114;52.052;5.238;2022-10-16T10:51:49;8.88;;;2.10;;
68284;SDS011;55114;52.052;5.238;2022-10-16T10:54:22;10.15;;;2.30;;
68284;SDS011;55114;52.052;5.238;2022-10-16T10:57:01;8.23;;;2.35;;
68284;SDS011;55114;52.052;5.238;2022-10-16T11:04:43;7.28;;;1.70;;
68284;SDS011;55114;52.052;5.238;2022-10-16T11:07:20;7.90;;;1.70;;
68284;SDS011;55114;52.052;5.238;2022-10-16T11:09:56;8.55;;;1.60;;
68284;SDS011;55114;52.052;5.238;2022-10-16T11:12:28;6.53;;;1.77;;
68284;SDS011;55114;52.052;5.238;2022-10-16T11:17:55;9.40;;;1.90;;
68284;SDS011;55114;52.052;5.238;2022-10-16T11:20:28;8.98;;;1.83;;
68284;SDS011;55114;52.052;5.238;2022-10-16T11:25:43;7.30;;;1.63;;
68284;SDS011;55114;52.052;5.238;2022-10-16T11:28:11;10.43;;;1.70;;
68284;SDS011;55114;52.052;5.238;2022-10-16T11:35:48;5.38;;;1.50;;
68284;SDS011;55114;52.052;5.238;2022-10-16T11:41:22;12.18;;;1.88;;
68284;SDS011;55114;52.052;5.238;2022-10-16T11:46:27;7.53;;;1.40;;
68284;SDS011;55114;52.052;5.238;2022-10-16T11:48:57;6.32;;;1.50;;
68284;SDS011;55114;52.052;5.238;2022-10-16T11:51:36;9.20;;;1.60;;
68284;SDS011;55114;52.052;5.238;2022-10-16T11:56:48;8.38;;;2.42;;
68284;SDS011;55114;52.052;5.238;2022-10-16T11:59:28;7.20;;;1.67;;
68284;SDS011;55114;52.052;5.238;2022-10-16T12:04:33;8.10;;;1.70;;
68284;SDS011;55114;52.052;5.238;2022-10-16T12:07:17;7.18;;;1.50;;
68284;SDS011;55114;52.052;5.238;2022-10-16T12:09:45;7.25;;;1.25;;
68284;SDS011;55114;52.052;5.238;2022-10-16T12:12:26;8.52;;;1.83;;
68284;SDS011;55114;52.052;5.238;2022-10-16T12:15:00;6.10;;;1.27;;
68284;SDS011;55114;52.052;5.238;2022-10-16T12:17:48;10.43;;;1.40;;
68284;SDS011;55114;52.052;5.238;2022-10-16T12:20:23;6.32;;;1.60;;
68284;SDS011;55114;52.052;5.238;2022-10-16T12:22:52;9.80;;;1.70;;
68284;SDS011;55114;52.052;5.238;2022-10-16T12:25:29;7.72;;;1.77;;
68284;SDS011;55114;52.052;5.238;2022-10-16T12:30:29;6.30;;;1.30;;
68284;SDS011;55114;52.052;5.238;2022-10-16T12:33:02;6.13;;;1.00;;
68284;SDS011;55114;52.052;5.238;2022-10-16T12:35:32;8.05;;;2.78;;
68284;SDS011;55114;52.052;5.238;2022-10-16T12:38:06;6.55;;;1.25;;
68284;SDS011;55114;52.052;5.238;2022-10-16T12:40:38;5.95;;;1.55;;
68284;SDS011;55114;52.052;5.238;2022-10-16T12:43:28;8.93;;;1.30;;
68284;SDS011;55114;52.052;5.238;2022-10-16T12:46:04;6.43;;;1.00;;
68284;SDS011;55114;52.052;5.238;2022-10-16T12:48:32;6.05;;;1.30;;
68284;SDS011;55114;52.052;5.238;2022-10-16T13:02:04;9.13;;;1.35;;
68284;SDS011;55114;52.052;5.238;2022-10-16T13:15:54;6.47;;;1.40;;
68284;SDS011;55114;52.052;5.238;2022-10-16T13:18:26;5.20;;;1.40;;
68284;SDS011;55114;52.052;5.238;2022-10-16T13:29:03;8.48;;;1.48;;
68284;SDS011;55114;52.052;5.238;2022-10-16T13:31:31;7.75;;;1.52;;
68284;SDS011;55114;52.052;5.238;2022-10-16T13:34:00;7.57;;;1.55;;
68284;SDS011;55114;52.052;5.238;2022-10-16T13:36:28;4.13;;;1.20;;
68284;SDS011;55114;52.052;5.238;2022-10-16T13:39:39;7.05;;;1.42;;
68284;SDS011;55114;52.052;5.238;2022-10-16T13:41:57;9.20;;;1.52;;
68284;SDS011;55114;52.052;5.238;2022-10-16T13:44:28;6.88;;;1.42;;
68284;SDS011;55114;52.052;5.238;2022-10-16T13:47:01;6.30;;;1.38;;
68284;SDS011;55114;52.052;5.238;2022-10-16T13:49:28;9.37;;;1.63;;
68284;SDS011;55114;52.052;5.238;2022-10-16T13:51:57;7.30;;;1.52;;
68284;SDS011;55114;52.052;5.238;2022-10-16T13:54:25;8.30;;;1.73;;
68284;SDS011;55114;52.052;5.238;2022-10-16T13:56:53;28.52;;;15.80;;
68284;SDS011;55114;52.052;5.238;2022-10-16T13:59:34;13.98;;;5.50;;
68284;SDS011;55114;52.052;5.238;2022-10-16T14:02:08;9.03;;;3.37;;
68284;SDS011;55114;52.052;5.238;2022-10-16T14:04:38;7.00;;;2.10;;
68284;SDS011;55114;52.052;5.238;2022-10-16T14:07:05;7.53;;;3.58;;
68284;SDS011;55114;52.052;5.238;2022-10-16T14:09:33;8.70;;;2.33;;
68284;SDS011;55114;52.052;5.238;2022-10-16T14:12:02;8.77;;;2.28;;
68284;SDS011;55114;52.052;5.238;2022-10-16T14:14:33;9.67;;;2.03;;
68284;SDS011;55114;52.052;5.238;2022-10-16T14:17:02;7.57;;;1.58;;
68284;SDS011;55114;52.052;5.238;2022-10-16T14:19:30;8.60;;;2.05;;
68284;SDS011;55114;52.052;5.238;2022-10-16T14:21:58;8.52;;;3.75;;
68284;SDS011;55114;52.052;5.238;2022-10-16T14:24:31;8.93;;;2.90;;
68284;SDS011;55114;52.052;5.238;2022-10-16T14:26:58;6.80;;;2.30;;
68284;SDS011;55114;52.052;5.238;2022-10-16T14:29:27;7.32;;;2.15;;
68284;SDS011;55114;52.052;5.238;2022-10-16T14:31:58;10.05;;;2.40;;
68284;SDS011;55114;52.052;5.238;2022-10-16T14:34:36;6.65;;;1.55;;
68284;SDS011;55114;52.052;5.238;2022-10-16T14:39:33;6.93;;;2.00;;
68284;SDS011;55114;52.052;5.238;2022-10-16T14:42:00;9.32;;;3.30;;
68284;SDS011;55114;52.052;5.238;2022-10-16T14:44:31;7.32;;;1.80;;
68284;SDS011;55114;52.052;5.238;2022-10-16T14:47:06;9.20;;;1.63;;
68284;SDS011;55114;52.052;5.238;2022-10-16T14:49:34;6.95;;;2.20;;
68284;SDS011;55114;52.052;5.238;2022-10-16T14:52:01;7.93;;;1.53;;
68284;SDS011;55114;52.052;5.238;2022-10-16T14:54:28;7.80;;;1.90;;
68284;SDS011;55114;52.052;5.238;2022-10-16T14:56:56;7.32;;;1.77;;
68284;SDS011;55114;52.052;5.238;2022-10-16T15:01:51;8.10;;;2.70;;
68284;SDS011;55114;52.052;5.238;2022-10-16T15:04:18;10.83;;;2.93;;
68284;SDS011;55114;52.052;5.238;2022-10-16T15:06:46;9.27;;;1.77;;
68284;SDS011;55114;52.052;5.238;2022-10-16T15:09:13;8.88;;;1.70;;
68284;SDS011;55114;52.052;5.238;2022-10-16T15:11:41;5.75;;;1.45;;
68284;SDS011;55114;52.052;5.238;2022-10-16T15:14:11;11.52;;;2.17;;
68284;SDS011;55114;52.052;5.238;2022-10-16T15:16:40;6.73;;;1.73;;
68284;SDS011;55114;52.052;5.238;2022-10-16T15:19:07;7.47;;;1.60;;
68284;SDS011;55114;52.052;5.238;2022-10-16T15:21:34;8.60;;;1.75;;
68284;SDS011;55114;52.052;5.238;2022-10-16T15:24:01;9.45;;;1.90;;
68284;SDS011;55114;52.052;5.238;2022-10-16T15:26:28;6.03;;;1.60;;
68284;SDS011;55114;52.052;5.238;2022-10-16T15:28:56;9.50;;;1.97;;
68284;SDS011;55114;52.052;5.238;2022-10-16T15:31:24;10.35;;;2.53;;
68284;SDS011;55114;52.052;5.238;2022-10-16T15:33:52;9.00;;;1.70;;
68284;SDS011;55114;52.052;5.238;2022-10-16T15:36:28;8.00;;;1.70;;
68284;SDS011;55114;52.052;5.238;2022-10-16T15:38:56;8.07;;;2.08;;
68284;SDS011;55114;52.052;5.238;2022-10-16T15:41:24;6.63;;;1.70;;
68284;SDS011;55114;52.052;5.238;2022-10-16T15:43:51;11.70;;;2.15;;
68284;SDS011;55114;52.052;5.238;2022-10-16T15:46:19;6.88;;;2.35;;
68284;SDS011;55114;52.052;5.238;2022-10-16T15:48:51;7.38;;;1.60;;
68284;SDS011;55114;52.052;5.238;2022-10-16T15:51:22;9.70;;;2.00;;
68284;SDS011;55114;52.052;5.238;2022-10-16T15:53:49;8.60;;;1.67;;
68284;SDS011;55114;52.052;5.238;2022-10-16T15:56:17;7.03;;;1.60;;
68284;SDS011;55114;52.052;5.238;2022-10-16T15:58:44;7.55;;;1.92;;
68284;SDS011;55114;52.052;5.238;2022-10-16T16:01:11;10.02;;;1.95;;
68284;SDS011;55114;52.052;5.238;2022-10-16T16:03:39;9.38;;;1.50;;
68284;SDS011;55114;52.052;5.238;2022-10-16T16:06:07;8.97;;;1.50;;
68284;SDS011;55114;52.052;5.238;2022-10-16T16:08:34;7.78;;;2.28;;
68284;SDS011;55114;52.052;5.238;2022-10-16T16:11:09;9.13;;;2.50;;
68284;SDS011;55114;52.052;5.238;2022-10-16T16:13:36;8.95;;;2.30;;
68284;SDS011;55114;52.052;5.238;2022-10-16T16:16:05;11.18;;;2.40;;
68284;SDS011;55114;52.052;5.238;2022-10-16T16:18:32;9.57;;;2.23;;
68284;SDS011;55114;52.052;5.238;2022-10-16T16:20:59;10.82;;;1.92;;
68284;SDS011;55114;52.052;5.238;2022-10-16T16:23:27;10.73;;;2.53;;
68284;SDS011;55114;52.052;5.238;2022-10-16T16:26:13;10.85;;;2.58;;
68284;SDS011;55114;52.052;5.238;2022-10-16T16:28:42;10.15;;;2.75;;
68284;SDS011;55114;52.052;5.238;2022-10-16T16:31:10;10.03;;;3.13;;
68284;SDS011;55114;52.052;5.238;2022-10-16T16:33:37;11.63;;;3.10;;
68284;SDS011;55114;52.052;5.238;2022-10-16T16:36:05;14.23;;;3.58;;
68284;SDS011;55114;52.052;5.238;2022-10-16T16:38:36;13.15;;;4.03;;
68284;SDS011;55114;52.052;5.238;2022-10-16T16:41:10;12.07;;;4.07;;
68284;SDS011;55114;52.052;5.238;2022-10-16T16:43:38;10.60;;;4.20;;
68284;SDS011;55114;52.052;5.238;2022-10-16T16:46:05;14.77;;;4.03;;
68284;SDS011;55114;52.052;5.238;2022-10-16T16:48:32;13.63;;;4.75;;
68284;SDS011;55114;52.052;5.238;2022-10-16T16:51:03;12.88;;;4.60;;
68284;SDS011;55114;52.052;5.238;2022-10-16T16:53:32;8.48;;;4.07;;
68284;SDS011;55114;52.052;5.238;2022-10-16T16:56:01;14.20;;;4.30;;
68284;SDS011;55114;52.052;5.238;2022-10-16T16:58:30;11.35;;;4.47;;
68284;SDS011;55114;52.052;5.238;2022-10-16T17:00:58;14.60;;;4.72;;
68284;SDS011;55114;52.052;5.238;2022-10-16T17:03:45;13.32;;;5.15;;
68284;SDS011;55114;52.052;5.238;2022-10-16T17:06:13;13.25;;;5.22;;
68284;SDS011;55114;52.052;5.238;2022-10-16T17:08:41;17.87;;;7.70;;
68284;SDS011;55114;52.052;5.238;2022-10-16T17:11:12;18.98;;;8.73;;
68284;SDS011;55114;52.052;5.238;2022-10-16T17:13:39;17.17;;;7.82;;
68284;SDS011;55114;52.052;5.238;2022-10-16T17:16:08;21.52;;;11.30;;
68284;SDS011;55114;52.052;5.238;2022-10-16T17:18:35;18.10;;;9.00;;
68284;SDS011;55114;52.052;5.238;2022-10-16T17:21:04;14.27;;;4.07;;
68284;SDS011;55114;52.052;5.238;2022-10-16T17:23:31;13.15;;;4.13;;
68284;SDS011;55114;52.052;5.238;2022-10-16T17:26:03;11.57;;;3.53;;
68284;SDS011;55114;52.052;5.238;2022-10-16T17:28:30;11.13;;;3.63;;
68284;SDS011;55114;52.052;5.238;2022-10-16T17:31:08;8.52;;;3.17;;
68284;SDS011;55114;52.052;5.238;2022-10-16T17:33:35;10.97;;;3.23;;
68284;SDS011;55114;52.052;5.238;2022-10-16T17:36:03;12.25;;;4.00;;
68284;SDS011;55114;52.052;5.238;2022-10-16T17:38:30;16.20;;;4.70;;
68284;SDS011;55114;52.052;5.238;2022-10-16T18:12:21;14.57;;;3.72;;
68284;SDS011;55114;52.052;5.238;2022-10-16T18:14:48;15.23;;;3.60;;
68284;SDS011;55114;52.052;5.238;2022-10-16T19:25:41;12.68;;;5.10;;
68284;SDS011;55114;52.052;5.238;2022-10-16T19:28:10;13.93;;;4.93;;
68284;SDS011;55114;52.052;5.238;2022-10-16T19:30:38;12.73;;;4.97;;
68284;SDS011;55114;52.052;5.238;2022-10-16T20:47:50;13.13;;;5.40;;
68284;SDS011;55114;52.052;5.238;2022-10-16T20:50:17;12.43;;;4.95;;
68284;SDS011;55114;52.052;5.238;2022-10-16T20:52:44;10.63;;;5.47;;
68284;SDS011;55114;52.052;5.238;2022-10-16T20:55:12;9.35;;;5.18;;
68284;SDS011;55114;52.052;5.238;2022-10-16T20:57:53;11.23;;;5.20;;
68284;SDS011;55114;52.052;5.238;2022-10-16T21:00:21;12.75;;;5.80;;
68284;SDS011;55114;52.052;5.238;2022-10-16T21:02:49;9.60;;;5.10;;
68284;SDS011;55114;52.052;5.238;2022-10-16T21:08:45;11.95;;;5.18;;
68284;SDS011;55114;52.052;5.238;2022-10-16T21:11:17;14.17;;;5.50;;
68284;SDS011;55114;52.052;5.238;2022-10-16T21:13:46;10.35;;;4.78;;
68284;SDS011;55114;52.052;5.238;2022-10-16T21:16:14;11.40;;;5.10;;
68284;SDS011;55114;52.052;5.238;2022-10-16T21:18:42;12.27;;;5.20;;
68284;SDS011;55114;52.052;5.238;2022-10-16T21:21:25;14.52;;;5.18;;
68284;SDS011;55114;52.052;5.238;2022-10-16T21:23:53;11.40;;;5.20;;
68284;SDS011;55114;52.052;5.238;2022-10-16T21:26:21;9.50;;;4.78;;
68284;SDS011;55114;52.052;5.238;2022-10-16T21:28:55;9.35;;;5.03;;
68284;SDS011;55114;52.052;5.238;2022-10-16T21:31:23;12.00;;;5.20;;
68284;SDS011;55114;52.052;5.238;2022-10-16T21:33:51;12.63;;;4.95;;
68284;SDS011;55114;52.052;5.238;2022-10-16T21:36:20;8.40;;;5.00;;
68284;SDS011;55114;52.052;5.238;2022-10-16T21:38:49;8.57;;;4.72;;
68284;SDS011;55114;52.052;5.238;2022-10-16T21:41:18;13.05;;;5.25;;
68284;SDS011;55114;52.052;5.238;2022-10-16T21:43:45;10.55;;;5.15;;